Time;durP1;ratioP1;P1;durP2;ratioP2;P2;SDS_P1;SDS_P2;PMS_P1;PMS_P2;Temp;Humidity;BMP_temperature;BMP_pressure;BME280_temperature;BME280_humidity;BME280_pressure;Samples;Min_cycle;Max_cycle;Signal;HPM_P1;HPM_P2
2021/12/31 00:00:48;;;;;;;19.20;15.00;;;;;;;4.83;71.67;102213.03;2079730;28;20639;-66
2021/12/31 00:01:48;;;;;;;15.90;13.00;;;;;;;4.81;71.74;102210.63;2080940;28;20681;-66
2021/12/31 00:02:49;;;;;;;22.53;16.97;;;;;;;4.77;71.96;102209.72;2080708;28;20263;-66
2021/12/31 00:03:49;;;;;;;16.87;13.13;;;;;;;4.02;72.01;102114.06;2080625;28;20283;-67
2021/12/31 00:04:50;;;;;;;16.63;13.40;;;;;;;4.76;72.09;102204.59;2080688;28;20583;-67
2021/12/31 00:05:51;;;;;;;19.37;16.23;;;;;;;4.50;72.23;102150.22;2080790;28;20191;-67
2021/12/31 00:06:51;;;;;;;20.03;15.10;;;;;;;4.79;71.74;102207.44;2080740;28;20185;-67
2021/12/31 00:07:52;;;;;;;15.77;12.60;;;;;;;3.58;71.39;102011.84;2080836;28;20177;-67
2021/12/31 00:08:53;;;;;;;18.97;14.17;;;;;;;4.78;71.95;102205.06;2080805;28;20186;-66
2021/12/31 00:09:59;;;;;;;18.77;14.83;;;;;;;4.75;71.54;102205.75;2080030;28;20192;-66
2021/12/31 00:12:18;;;;;;;17.52;13.73;;;;;;;4.70;72.50;102227.97;2080800;28;20165;-67
2021/12/31 00:13:18;;;;;;;17.03;13.80;;;;;;;4.70;72.72;102236.22;2081209;28;20184;-66
2021/12/31 00:14:20;;;;;;;18.47;13.80;;;;;;;4.69;71.92;102229.13;2082256;28;20208;-67
2021/12/31 00:15:21;;;;;;;17.98;13.63;;;;;;;4.07;72.29;102150.28;2082275;28;20207;-67
2021/12/31 00:16:21;;;;;;;18.27;14.27;;;;;;;4.67;72.21;102224.00;2082025;28;20189;-67
2021/12/31 00:17:22;;;;;;;19.07;14.63;;;;;;;3.78;72.23;102089.53;2082398;28;20192;-66
2021/12/31 00:18:22;;;;;;;15.47;11.37;;;;;;;4.72;72.93;102217.47;2082377;28;20263;-66
2021/12/31 00:19:25;;;;;;;12.93;10.43;;;;;;;4.72;73.23;102222.94;2082082;28;20659;-66
2021/12/31 00:20:26;;;;;;;18.83;15.00;;;;;;;4.66;72.62;102265.56;2080697;28;20262;-66
2021/12/31 00:21:32;;;;;;;13.10;11.15;;;;;;;4.66;72.98;102224.38;2081436;28;20200;-66
2021/12/31 00:23:43;;;;;;;13.27;10.15;;;;;;;4.58;73.27;102223.41;2082278;28;20234;-66
2021/12/31 00:24:44;;;;;;;15.05;11.60;;;;;;;4.59;73.11;102224.16;2081980;28;20241;-66
2021/12/31 00:25:44;;;;;;;17.33;13.20;;;;;;;3.22;72.95;102011.22;2082166;28;20181;-66
2021/12/31 00:26:45;;;;;;;14.27;11.17;;;;;;;4.08;73.09;102137.34;2082166;28;20187;-66
2021/12/31 00:27:45;;;;;;;14.10;10.93;;;;;;;4.71;72.91;102218.59;2081929;28;20202;-66
2021/12/31 00:28:46;;;;;;;14.10;11.43;;;;;;;4.68;73.49;102222.88;2082114;28;20179;-67
2021/12/31 00:29:46;;;;;;;14.53;11.60;;;;;;;3.60;73.06;102061.63;2081724;28;20625;-67
2021/12/31 00:30:52;;;;;;;13.67;10.63;;;;;;;4.74;72.67;102224.19;2080772;28;20184;-67
2021/12/31 00:31:53;;;;;;;12.98;10.63;;;;;;;4.73;73.04;102224.53;2081331;28;20169;-67
2021/12/31 00:32:53;;;;;;;14.17;11.33;;;;;;;4.70;72.84;102226.03;2081446;28;20336;-67
2021/12/31 00:33:54;;;;;;;14.63;11.83;;;;;;;4.78;72.57;102230.56;2082127;28;20736;-67
2021/12/31 00:34:54;;;;;;;17.67;11.83;;;;;;;4.67;72.87;102223.22;2081917;28;20290;-67
2021/12/31 00:35:55;;;;;;;13.57;10.30;;;;;;;4.74;72.25;102235.19;2082168;28;20183;-67
2021/12/31 00:36:55;;;;;;;14.47;11.63;;;;;;;4.72;72.38;102225.69;2082040;28;20180;-66
2021/12/31 00:37:56;;;;;;;15.20;12.17;;;;;;;4.77;72.61;102239.16;2082085;28;20230;-66
2021/12/31 00:38:57;;;;;;;14.70;11.40;;;;;;;4.72;72.54;102244.91;2081875;28;20291;-67
2021/12/31 00:39:57;;;;;;;13.90;11.17;;;;;;;4.82;72.99;102244.41;2081028;28;20557;-67
2021/12/31 00:40:58;;;;;;;12.40;10.40;;;;;;;4.79;72.23;102239.59;2081387;28;20169;-66
2021/12/31 00:41:58;;;;;;;14.30;11.43;;;;;;;4.79;72.73;102245.09;2082003;28;20267;-66
2021/12/31 00:42:59;;;;;;;14.13;11.00;;;;;;;4.78;72.67;102244.28;2081950;28;20255;-66
2021/12/31 00:43:59;;;;;;;15.20;11.40;;;;;;;4.78;72.71;102246.25;2082281;28;20265;-66
2021/12/31 00:45:00;;;;;;;13.80;10.20;;;;;;;4.77;72.08;102250.94;2081965;28;20255;-67
2021/12/31 00:46:02;;;;;;;14.67;11.47;;;;;;;4.87;72.14;102242.16;2082005;28;20254;-67
2021/12/31 00:47:03;;;;;;;13.82;10.55;;;;;;;4.94;72.50;102247.84;2081918;28;20631;-67
2021/12/31 00:48:03;;;;;;;13.50;11.10;;;;;;;4.92;72.08;102241.13;2081980;28;20196;-67
2021/12/31 00:49:05;;;;;;;12.60;10.23;;;;;;;4.91;71.74;102245.81;2081867;28;20673;-67
2021/12/31 00:50:07;;;;;;;14.18;10.90;;;;;;;4.93;71.65;102238.00;2081068;28;20177;-67
2021/12/31 00:51:07;;;;;;;14.30;10.75;;;;;;;4.92;71.46;102235.63;2081261;28;20207;-67
2021/12/31 00:52:08;;;;;;;12.40;10.57;;;;;;;4.52;71.93;102199.28;2081794;28;20189;-67
2021/12/31 00:53:09;;;;;;;14.37;10.80;;;;;;;4.77;72.04;102261.91;2081908;28;20219;-67
2021/12/31 00:54:09;;;;;;;14.80;10.55;;;;;;;4.75;72.56;102239.50;2081838;28;20176;-66
2021/12/31 00:55:11;;;;;;;15.07;11.03;;;;;;;4.73;73.00;102241.03;2081920;28;20180;-66
2021/12/31 00:56:12;;;;;;;12.90;10.45;;;;;;;4.77;72.90;102236.41;2081827;28;20191;-67
2021/12/31 00:57:12;;;;;;;15.90;12.17;;;;;;;4.80;72.73;102239.25;2081966;28;20661;-66
2021/12/31 00:58:13;;;;;;;13.97;10.90;;;;;;;3.87;72.85;102087.41;2081145;28;20596;-66
2021/12/31 00:59:13;;;;;;;13.70;10.83;;;;;;;4.65;72.60;102204.34;2081258;28;20400;-67
2021/12/31 01:00:15;;;;;;;15.10;10.97;;;;;;;4.87;72.65;102235.88;2080588;28;20178;-67
2021/12/31 01:01:19;;;;;;;13.10;11.00;;;;;;;4.87;72.96;102227.66;2081699;28;20192;-67
2021/12/31 01:02:22;;;;;;;14.73;11.05;;;;;;;4.86;72.74;102223.28;2081887;28;20190;-66
2021/12/31 01:03:22;;;;;;;12.98;10.32;;;;;;;4.89;72.72;102226.16;2081537;28;20551;-66
2021/12/31 01:04:24;;;;;;;14.07;11.20;;;;;;;4.91;72.20;102223.81;2081802;28;20230;-66
2021/12/31 01:05:25;;;;;;;13.53;11.00;;;;;;;4.95;72.69;102221.97;2081696;28;20192;-67
2021/12/31 01:06:26;;;;;;;14.57;11.40;;;;;;;4.54;72.41;102153.06;2081841;28;20717;-67
2021/12/31 01:07:27;;;;;;;14.03;11.33;;;;;;;5.03;72.08;102217.44;2081747;28;20188;-66
2021/12/31 01:08:28;;;;;;;13.23;10.13;;;;;;;5.06;71.43;102219.47;2081788;28;20210;-66
2021/12/31 01:09:29;;;;;;;13.37;10.60;;;;;;;5.07;71.46;102226.56;2081698;28;20175;-66
2021/12/31 01:10:30;;;;;;;15.00;11.32;;;;;;;4.93;71.41;102199.53;2080646;28;20186;-66
2021/12/31 01:11:31;;;;;;;13.00;10.60;;;;;;;5.06;71.65;102214.78;2081823;28;20533;-66
2021/12/31 01:12:32;;;;;;;13.60;10.57;;;;;;;5.02;70.86;102202.91;2081904;28;20176;-66
2021/12/31 01:13:50;;;;;;;14.65;11.75;;;;;;;5.08;71.32;102219.91;2081688;28;20559;-67
2021/12/31 01:15:11;;;;;;;13.82;10.35;;;;;;;5.09;70.86;102227.81;2081748;28;20156;-67
2021/12/31 01:16:11;;;;;;;13.30;10.65;;;;;;;4.99;70.31;102208.31;2081622;28;20197;-67
2021/12/31 01:17:15;;;;;;;15.77;11.40;;;;;;;5.00;71.37;102221.69;2081766;28;20251;-67
2021/12/31 01:18:21;;;;;;;12.52;10.63;;;;;;;5.04;70.77;102217.09;2081699;28;20274;-67
2021/12/31 01:20:22;;;;;;;12.53;10.30;;;;;;;4.98;71.08;102231.44;2080341;28;20557;-67
2021/12/31 01:21:23;;;;;;;13.63;10.88;;;;;;;4.94;71.28;102208.56;2081888;28;20180;-67
2021/12/31 01:22:29;;;;;;;12.90;10.33;;;;;;;4.97;71.05;102207.88;2081644;28;20179;-67
2021/12/31 01:23:34;;;;;;;14.05;10.98;;;;;;;4.87;71.30;102198.22;2081705;28;20230;-67
2021/12/31 01:24:35;;;;;;;12.77;10.45;;;;;;;4.83;71.62;102182.81;2081510;28;20189;-67
2021/12/31 01:25:36;;;;;;;14.17;10.37;;;;;;;4.92;71.87;102206.19;2081799;28;20188;-67
2021/12/31 01:26:37;;;;;;;13.48;11.02;;;;;;;4.93;71.51;102210.50;2081628;28;20658;-66
2021/12/31 01:27:38;;;;;;;14.03;10.80;;;;;;;4.85;71.62;102189.53;2081738;28;20176;-66
2021/12/31 01:28:39;;;;;;;13.57;10.70;;;;;;;4.91;72.08;102214.78;2078175;28;20654;-67
2021/12/31 01:29:40;;;;;;;12.67;10.80;;;;;;;4.92;71.88;102208.94;2081338;28;20170;-67
2021/12/31 01:30:41;;;;;;;14.83;11.77;;;;;;;4.86;71.65;102201.31;2080502;28;20179;-67
2021/12/31 01:31:41;;;;;;;13.73;10.30;;;;;;;4.92;71.75;102203.44;2081511;28;20467;-67
2021/12/31 01:32:43;;;;;;;13.10;10.50;;;;;;;4.92;71.69;102211.69;2081617;28;20278;-66
2021/12/31 01:33:43;;;;;;;13.95;11.07;;;;;;;4.51;72.18;102134.56;2081777;28;20186;-66
2021/12/31 01:34:44;;;;;;;15.27;11.73;;;;;;;4.51;71.74;102162.00;2081499;28;20186;-66
2021/12/31 01:35:44;;;;;;;12.90;10.43;;;;;;;4.85;71.84;102196.97;2081604;28;20238;-66
2021/12/31 01:36:45;;;;;;;14.17;10.93;;;;;;;4.40;71.32;102127.97;2081551;28;20195;-66
2021/12/31 01:37:45;;;;;;;12.73;10.20;;;;;;;4.86;72.18;102207.59;2081576;28;20233;-67
2021/12/31 01:38:46;;;;;;;14.33;10.83;;;;;;;4.85;71.76;102211.50;2081498;28;20178;-67
2021/12/31 01:39:46;;;;;;;12.93;10.30;;;;;;;4.75;71.77;102178.28;2081118;28;20174;-67
2021/12/31 01:40:48;;;;;;;13.53;11.07;;;;;;;4.87;71.29;102205.66;2080422;28;20181;-67
2021/12/31 01:41:49;;;;;;;15.52;11.13;;;;;;;4.89;71.76;102212.41;2081615;28;20175;-67
2021/12/31 01:42:50;;;;;;;13.40;11.27;;;;;;;4.90;72.30;102210.44;2081438;28;20179;-66
2021/12/31 01:43:52;;;;;;;13.77;10.63;;;;;;;4.72;72.56;102179.78;2081575;28;20228;-66
2021/12/31 01:44:57;;;;;;;13.75;11.48;;;;;;;4.90;72.32;102213.19;2081501;28;20743;-66
2021/12/31 01:46:00;;;;;;;13.60;11.05;;;;;;;4.94;72.47;102211.31;2081610;28;20166;-66
2021/12/31 01:47:08;;;;;;;13.70;10.73;;;;;;;4.91;71.46;102212.03;2081575;28;20648;-66
2021/12/31 01:48:22;;;;;;;13.30;10.63;;;;;;;4.30;71.64;102120.28;2081575;28;20156;-66
2021/12/31 01:49:27;;;;;;;14.50;10.90;;;;;;;4.89;71.74;102217.09;2081570;28;20181;-66
2021/12/31 01:50:29;;;;;;;14.38;10.90;;;;;;;4.83;72.73;102213.81;2080247;28;20626;-67
2021/12/31 01:51:30;;;;;;;14.13;10.50;;;;;;;4.86;72.50;102215.03;2081412;28;20534;-67
2021/12/31 01:52:30;;;;;;;13.13;10.80;;;;;;;4.87;72.16;102214.69;2081277;28;20177;-67
2021/12/31 01:53:32;;;;;;;11.77;9.67;;;;;;;4.07;72.31;102083.63;2081660;28;20182;-67
2021/12/31 01:54:34;;;;;;;12.73;10.35;;;;;;;4.83;72.13;102213.03;2081358;28;20652;-67
2021/12/31 01:55:35;;;;;;;12.57;10.15;;;;;;;4.86;72.28;102209.53;2081464;28;20187;-67
2021/12/31 01:56:36;;;;;;;13.77;10.00;;;;;;;4.17;72.31;102096.84;2081261;28;20206;-67
2021/12/31 01:57:40;;;;;;;12.77;10.23;;;;;;;4.89;72.18;102215.16;2081378;28;20180;-66
2021/12/31 01:58:41;;;;;;;12.32;9.93;;;;;;;4.89;72.17;102211.59;2081214;28;20873;-67
2021/12/31 01:59:42;;;;;;;12.07;9.77;;;;;;;4.89;72.34;102220.66;2081001;28;20195;-67
2021/12/31 02:00:42;;;;;;;13.27;10.37;;;;;;;4.85;72.33;102217.00;2079741;28;20186;-67
2021/12/31 02:01:44;;;;;;;11.83;9.77;;;;;;;4.90;72.49;102213.19;2080679;28;20180;-67
2021/12/31 02:02:46;;;;;;;10.63;9.05;;;;;;;4.54;72.28;102177.75;2081378;28;20202;-67
2021/12/31 02:03:47;;;;;;;12.77;9.75;;;;;;;4.99;72.59;102205.56;2081179;28;20696;-67
2021/12/31 02:04:49;;;;;;;13.07;9.80;;;;;;;4.94;72.19;102208.56;2081303;28;20561;-67
2021/12/31 02:05:49;;;;;;;10.98;8.98;;;;;;;4.94;72.23;102190.16;2081388;28;20229;-67
2021/12/31 02:06:50;;;;;;;12.50;10.03;;;;;;;4.99;72.13;102208.31;2081359;28;20438;-66
2021/12/31 02:07:50;;;;;;;13.20;10.20;;;;;;;4.96;72.23;102196.09;2081406;28;20612;-66
2021/12/31 02:08:51;;;;;;;13.60;10.03;;;;;;;4.87;71.87;102172.72;2081286;28;20173;-67
2021/12/31 02:09:54;;;;;;;11.83;9.77;;;;;;;4.66;71.61;102126.28;2080867;28;20275;-67
2021/12/31 02:10:54;;;;;;;12.13;9.75;;;;;;;5.09;71.55;102203.06;2080510;28;20180;-67
2021/12/31 02:11:55;;;;;;;12.73;9.80;;;;;;;4.25;71.93;102077.44;2081242;28;20562;-67
2021/12/31 02:12:56;;;;;;;10.87;8.97;;;;;;;5.06;72.21;102197.47;2081354;28;20172;-67
2021/12/31 02:13:58;;;;;;;10.65;8.57;;;;;;;4.49;71.76;102101.16;2081352;28;20171;-67
2021/12/31 02:14:59;;;;;;;12.35;9.10;;;;;;;5.07;72.15;102194.38;2081172;28;20649;-66
2021/12/31 02:16:00;;;;;;;11.47;9.20;;;;;;;5.10;71.72;102201.09;2081174;28;20623;-67
2021/12/31 02:17:00;;;;;;;10.90;8.57;;;;;;;5.09;71.38;102196.78;2081274;28;20177;-67
2021/12/31 02:18:03;;;;;;;11.07;8.97;;;;;;;5.05;71.56;102191.19;2081423;28;20646;-67
2021/12/31 02:19:11;;;;;;;10.18;8.55;;;;;;;5.03;71.88;102184.47;2081208;28;20170;-66
2021/12/31 02:20:13;;;;;;;10.73;8.98;;;;;;;3.80;71.76;101989.31;2080031;28;20258;-66
2021/12/31 02:21:15;;;;;;;10.00;7.82;;;;;;;4.92;71.69;102166.94;2081024;28;20181;-66
2021/12/31 02:22:15;;;;;;;11.05;9.20;;;;;;;5.09;71.42;102194.03;2081283;28;20178;-66
2021/12/31 02:23:23;;;;;;;12.17;8.97;;;;;;;5.09;71.82;102188.53;2081295;28;20261;-66
2021/12/31 02:24:24;;;;;;;12.07;8.85;;;;;;;3.91;71.61;101990.38;2081274;28;20602;-67
2021/12/31 02:25:25;;;;;;;10.38;8.18;;;;;;;5.18;71.52;102194.63;2081359;28;20190;-66
2021/12/31 02:26:25;;;;;;;12.10;8.67;;;;;;;5.20;71.35;102190.38;2081231;28;20174;-66
2021/12/31 02:27:26;;;;;;;9.13;8.13;;;;;;;5.25;70.92;102189.28;2081102;28;20184;-67
2021/12/31 02:28:27;;;;;;;11.43;8.37;;;;;;;5.24;71.58;102188.47;2081138;28;20190;-67
2021/12/31 02:29:28;;;;;;;9.50;7.78;;;;;;;5.29;70.52;102179.16;2080986;28;20188;-67
2021/12/31 02:30:29;;;;;;;9.60;8.00;;;;;;;5.16;71.29;102174.94;2079987;28;20207;-67
2021/12/31 02:31:30;;;;;;;9.60;7.73;;;;;;;4.67;71.31;102116.13;2081198;28;20653;-66
2021/12/31 02:32:31;;;;;;;10.00;7.82;;;;;;;4.96;71.49;102156.81;2081049;28;20172;-66
2021/12/31 02:33:32;;;;;;;10.13;8.00;;;;;;;5.13;71.27;102181.94;2081169;28;20184;-66
2021/12/31 02:34:33;;;;;;;9.88;8.13;;;;;;;4.91;71.03;102151.59;2081074;28;20176;-66
2021/12/31 02:35:35;;;;;;;9.57;7.90;;;;;;;5.16;71.05;102188.69;2081074;28;20179;-66
2021/12/31 02:36:35;;;;;;;9.18;7.78;;;;;;;5.10;71.41;102181.88;2080348;28;20175;-66
2021/12/31 02:37:36;;;;;;;8.80;7.23;;;;;;;5.14;72.02;102178.03;2080535;28;20271;-66
2021/12/31 02:38:36;;;;;;;8.47;6.87;;;;;;;5.12;71.66;102182.31;2081148;28;20258;-67
2021/12/31 02:39:39;;;;;;;10.27;8.10;;;;;;;4.99;71.88;102162.41;2080554;28;20184;-67
2021/12/31 02:40:40;;;;;;;11.10;7.75;;;;;;;5.19;71.70;102172.25;2080068;28;20241;-66
2021/12/31 02:41:40;;;;;;;9.87;7.70;;;;;;;5.13;71.69;102172.94;2081154;28;20184;-66
2021/12/31 02:42:41;;;;;;;10.17;7.67;;;;;;;5.12;71.78;102174.88;2081036;28;20509;-66
2021/12/31 02:43:42;;;;;;;10.38;7.97;;;;;;;5.14;71.70;102185.50;2081181;28;20179;-66
2021/12/31 02:44:43;;;;;;;9.73;8.13;;;;;;;5.15;72.14;102176.91;2080991;28;20217;-67
2021/12/31 02:45:44;;;;;;;9.68;7.95;;;;;;;5.19;71.57;102177.75;2081107;28;20544;-67
2021/12/31 02:46:44;;;;;;;10.23;8.40;;;;;;;5.23;71.10;102172.38;2081026;28;20272;-67
2021/12/31 02:47:46;;;;;;;10.03;8.00;;;;;;;5.21;71.35;102180.97;2081027;28;20626;-67
2021/12/31 02:48:55;;;;;;;10.13;7.70;;;;;;;4.28;71.16;102037.53;2081003;28;20541;-67
2021/12/31 02:49:55;;;;;;;9.80;7.18;;;;;;;5.10;71.49;102179.94;2080267;28;20154;-67
2021/12/31 02:50:58;;;;;;;9.27;7.27;;;;;;;5.08;71.53;102173.97;2080422;28;20184;-67
2021/12/31 02:52:02;;;;;;;9.45;7.18;;;;;;;5.08;71.62;102173.19;2080963;28;20171;-67
2021/12/31 02:53:06;;;;;;;7.88;6.50;;;;;;;5.11;71.29;102169.72;2080375;28;20176;-67
2021/12/31 02:54:09;;;;;;;9.13;6.82;;;;;;;5.10;71.62;102170.88;2080503;28;20179;-67
2021/12/31 02:55:11;;;;;;;9.40;6.45;;;;;;;5.18;71.41;102169.91;2080892;28;20225;-67
2021/12/31 02:56:13;;;;;;;8.40;6.25;;;;;;;5.18;71.33;102172.66;2081048;28;20180;-67
2021/12/31 02:57:15;;;;;;;7.32;5.85;;;;;;;5.17;71.52;102171.03;2081037;28;20211;-67
2021/12/31 02:58:35;;;;;;;7.30;5.78;;;;;;;5.17;72.08;102173.78;2080930;28;20230;-67
2021/12/31 02:59:36;;;;;;;8.02;5.85;;;;;;;5.18;71.89;102170.69;2080645;28;20230;-67
2021/12/31 03:00:39;;;;;;;8.70;6.07;;;;;;;5.18;71.29;102167.94;2079916;28;20273;-67
2021/12/31 03:01:40;;;;;;;7.32;5.60;;;;;;;4.75;71.83;102107.69;2081042;28;20263;-66
2021/12/31 03:02:41;;;;;;;7.50;5.87;;;;;;;5.23;71.61;102175.13;2080993;28;20179;-66
2021/12/31 03:03:42;;;;;;;6.88;5.65;;;;;;;4.41;71.50;102048.03;2080711;28;20242;-67
2021/12/31 03:04:43;;;;;;;7.10;5.47;;;;;;;5.06;71.94;102140.59;2081163;28;20211;-67
2021/12/31 03:05:45;;;;;;;9.15;6.03;;;;;;;5.27;71.45;102170.47;2080312;28;20772;-67
2021/12/31 03:06:46;;;;;;;7.82;5.90;;;;;;;5.14;71.67;102139.56;2080143;28;20270;-67
2021/12/31 03:07:49;;;;;;;8.23;5.95;;;;;;;5.36;70.96;102168.31;2073022;28;20184;-67
2021/12/31 03:08:51;;;;;;;8.65;6.07;;;;;;;5.14;70.75;102130.53;2072830;28;20225;-67
2021/12/31 03:09:53;;;;;;;7.90;5.95;;;;;;;5.37;71.20;102172.66;2079631;28;20180;-67
2021/12/31 03:10:56;;;;;;;7.05;5.60;;;;;;;4.26;70.67;101990.44;2079538;28;20182;-67
2021/12/31 03:11:57;;;;;;;7.43;5.55;;;;;;;4.42;70.57;102016.69;2072735;28;20557;-67
2021/12/31 03:12:59;;;;;;;8.07;6.20;;;;;;;5.41;70.70;102163.34;2072913;28;20618;-67
2021/12/31 03:14:00;;;;;;;7.13;5.80;;;;;;;5.43;70.55;102174.78;2072938;28;20169;-67
2021/12/31 03:15:01;;;;;;;8.65;6.28;;;;;;;5.20;71.37;102154.66;2072684;28;20166;-67
2021/12/31 03:16:02;;;;;;;7.85;6.18;;;;;;;5.37;70.77;102173.47;2075918;28;20210;-67
2021/12/31 03:17:04;;;;;;;8.25;6.30;;;;;;;4.72;70.76;102052.69;2080973;28;20253;-66
2021/12/31 03:18:06;;;;;;;9.60;6.45;;;;;;;5.34;71.10;102152.19;2080977;28;20181;-66
2021/12/31 03:19:07;;;;;;;8.43;6.25;;;;;;;5.44;70.89;102156.34;2080972;28;20176;-66
2021/12/31 03:20:11;;;;;;;8.33;6.20;;;;;;;5.53;70.71;102159.69;2079948;28;20192;-66
2021/12/31 03:21:21;;;;;;;7.60;5.80;;;;;;;5.54;70.13;102148.28;2080886;28;20172;-66
2021/12/31 03:22:24;;;;;;;7.70;5.90;;;;;;;5.20;70.11;102115.34;2080862;28;20184;-66
2021/12/31 03:23:25;;;;;;;10.43;7.68;;;;;;;5.53;69.90;102138.47;2080856;28;20207;-66
2021/12/31 03:24:25;;;;;;;8.43;6.63;;;;;;;5.58;70.54;102160.16;2080746;28;20714;-66
2021/12/31 03:25:26;;;;;;;9.33;6.97;;;;;;;5.60;69.93;102165.31;2080868;28;20176;-66
2021/12/31 03:26:26;;;;;;;9.43;7.27;;;;;;;5.61;70.42;102162.22;2080802;28;20177;-67
2021/12/31 03:27:27;;;;;;;10.30;7.83;;;;;;;5.60;70.12;102157.84;2080788;28;20199;-67
2021/12/31 03:28:27;;;;;;;10.17;7.87;;;;;;;5.57;70.64;102163.28;2080614;28;20177;-67
2021/12/31 03:29:28;;;;;;;10.13;7.57;;;;;;;5.55;70.53;102162.84;2080647;28;20180;-67
2021/12/31 03:30:29;;;;;;;10.30;8.27;;;;;;;5.48;70.68;102149.75;2079742;28;20165;-67
2021/12/31 03:31:29;;;;;;;9.67;7.90;;;;;;;5.57;70.43;102160.53;2080870;28;20185;-67
2021/12/31 03:32:30;;;;;;;10.93;8.53;;;;;;;4.52;70.51;102012.59;2080797;28;20184;-66
2021/12/31 03:33:30;;;;;;;11.00;8.33;;;;;;;5.46;70.76;102156.75;2080930;28;20176;-66
2021/12/31 03:34:31;;;;;;;10.27;8.47;;;;;;;5.44;70.56;102165.38;2080891;28;20177;-66
2021/12/31 03:35:31;;;;;;;11.03;8.43;;;;;;;5.48;70.75;102166.25;2080920;28;20176;-67
2021/12/31 03:36:31;;;;;;;10.57;8.27;;;;;;;5.53;70.41;102151.44;2080836;28;20259;-67
2021/12/31 03:37:32;;;;;;;12.27;8.70;;;;;;;5.53;70.53;102151.44;2080690;28;20173;-66
2021/12/31 03:38:32;;;;;;;10.63;8.47;;;;;;;5.53;70.59;102156.94;2080903;28;20173;-66
2021/12/31 03:39:33;;;;;;;10.83;8.17;;;;;;;5.50;70.82;102158.44;2080343;28;20170;-66
2021/12/31 03:40:33;;;;;;;10.50;8.37;;;;;;;5.45;71.19;102157.94;2079611;28;20181;-66
2021/12/31 03:41:35;;;;;;;10.53;7.90;;;;;;;5.31;70.93;102141.91;2080761;28;20184;-66
2021/12/31 03:42:36;;;;;;;11.00;8.15;;;;;;;5.28;71.25;102144.59;2080965;28;20183;-66
2021/12/31 03:43:36;;;;;;;10.65;7.97;;;;;;;5.20;71.39;102127.16;2080771;28;20177;-66
2021/12/31 03:44:37;;;;;;;9.53;7.30;;;;;;;5.37;71.37;102156.16;2080674;28;20232;-67
2021/12/31 03:45:38;;;;;;;9.90;7.80;;;;;;;5.44;71.45;102148.88;2080839;28;20181;-67
2021/12/31 03:46:38;;;;;;;9.57;7.57;;;;;;;5.46;70.98;102152.06;2080752;28;20173;-67
2021/12/31 03:47:39;;;;;;;10.70;7.47;;;;;;;5.42;70.85;102137.44;2081016;28;20177;-67
2021/12/31 03:48:40;;;;;;;8.83;6.93;;;;;;;5.59;70.85;102159.00;2081330;28;20180;-67
2021/12/31 03:49:41;;;;;;;9.10;7.30;;;;;;;5.69;69.85;102155.69;2081596;28;20181;-67
2021/12/31 03:50:41;;;;;;;9.13;7.37;;;;;;;5.65;70.57;102156.78;2081170;28;20177;-67
2021/12/31 03:51:42;;;;;;;10.53;7.67;;;;;;;5.56;70.14;102151.50;2082305;28;20262;-67
2021/12/31 03:52:42;;;;;;;8.60;6.83;;;;;;;5.51;70.51;102154.53;2082429;28;20446;-67
2021/12/31 03:53:43;;;;;;;8.17;6.83;;;;;;;5.49;70.08;102148.56;2082436;28;20606;-67
2021/12/31 03:54:43;;;;;;;8.07;6.83;;;;;;;4.90;70.33;102059.34;2081631;28;20180;-66
2021/12/31 03:55:45;;;;;;;9.13;6.63;;;;;;;5.48;70.58;102154.47;2081807;28;20188;-66
2021/12/31 03:56:47;;;;;;;9.75;6.78;;;;;;;5.19;70.39;102116.53;2082394;28;20181;-67
2021/12/31 03:57:48;;;;;;;8.35;6.28;;;;;;;5.45;70.83;102163.41;2082406;28;20176;-67
2021/12/31 03:58:48;;;;;;;8.63;6.63;;;;;;;5.46;70.95;102159.50;2082197;28;20501;-67
2021/12/31 03:59:49;;;;;;;8.10;6.63;;;;;;;5.45;70.39;102152.44;2081742;28;20670;-67
2021/12/31 04:00:49;;;;;;;8.13;6.27;;;;;;;4.78;70.37;102048.50;2081541;28;20176;-67
2021/12/31 04:01:50;;;;;;;7.97;6.00;;;;;;;5.42;70.53;102150.38;2082403;28;20179;-67
2021/12/31 04:02:50;;;;;;;7.50;5.93;;;;;;;5.41;70.71;102157.03;2082243;28;20259;-67
2021/12/31 04:03:51;;;;;;;8.13;6.40;;;;;;;5.45;70.69;102164.22;2082183;28;20292;-66
2021/12/31 04:04:52;;;;;;;8.13;5.83;;;;;;;5.12;70.40;102088.91;2082167;28;20281;-67
2021/12/31 04:05:53;;;;;;;7.77;5.80;;;;;;;5.60;70.27;102162.56;2082326;28;20566;-67
2021/12/31 04:06:53;;;;;;;8.35;6.50;;;;;;;5.48;70.71;102147.00;2082215;28;20180;-66
2021/12/31 04:07:54;;;;;;;7.37;5.93;;;;;;;5.53;70.12;102162.44;2081560;28;20219;-66
2021/12/31 04:08:54;;;;;;;8.00;6.20;;;;;;;5.52;70.09;102171.81;2081614;28;20477;-66
2021/12/31 04:09:54;;;;;;;7.93;6.20;;;;;;;5.55;70.07;102165.59;2080580;28;20220;-67
2021/12/31 04:10:55;;;;;;;8.00;6.23;;;;;;;5.56;70.11;102173.50;2081002;28;20203;-67
2021/12/31 04:11:55;;;;;;;7.63;6.40;;;;;;;5.52;70.53;102171.81;2082206;28;20187;-67
2021/12/31 04:12:56;;;;;;;7.90;6.10;;;;;;;5.52;70.53;102169.06;2082227;28;20175;-67
2021/12/31 04:13:56;;;;;;;6.97;5.63;;;;;;;5.44;70.15;102159.09;2082302;28;20591;-67
2021/12/31 04:14:57;;;;;;;7.67;6.03;;;;;;;5.43;70.44;102158.28;2082202;28;20236;-67
2021/12/31 04:15:57;;;;;;;8.03;5.97;;;;;;;5.46;70.66;102154.00;2082128;28;20194;-66
2021/12/31 04:16:58;;;;;;;6.63;5.47;;;;;;;5.51;70.76;102168.28;2082190;28;20166;-66
2021/12/31 04:17:58;;;;;;;7.07;5.57;;;;;;;5.51;70.85;102161.97;2081610;28;20229;-66
2021/12/31 04:18:59;;;;;;;7.33;5.70;;;;;;;5.39;70.21;102134.63;2073347;28;20179;-66
2021/12/31 04:19:59;;;;;;;7.30;5.73;;;;;;;5.42;70.71;102140.19;2080668;28;20181;-66
2021/12/31 04:21:01;;;;;;;6.90;5.60;;;;;;;5.17;70.21;102091.31;2080918;28;20171;-67
2021/12/31 04:22:02;;;;;;;7.60;6.30;;;;;;;5.60;70.44;102151.56;2081702;28;20172;-67
2021/12/31 04:23:11;;;;;;;9.30;6.20;;;;;;;5.62;69.72;102154.72;2082234;28;20178;-67
2021/12/31 04:24:26;;;;;;;6.53;5.32;;;;;;;5.63;69.68;102156.31;2082302;28;20154;-67
2021/12/31 04:25:27;;;;;;;7.60;5.90;;;;;;;5.59;70.03;102159.00;2082236;28;20178;-67
2021/12/31 04:26:28;;;;;;;6.60;5.40;;;;;;;5.57;70.28;102158.59;2082166;28;20260;-67
2021/12/31 04:27:28;;;;;;;8.43;5.50;;;;;;;5.58;70.07;102151.09;2082065;28;20275;-67
2021/12/31 04:28:29;;;;;;;5.83;5.03;;;;;;;5.63;70.09;102178.31;2081999;28;20194;-67
2021/12/31 04:29:30;;;;;;;6.53;5.13;;;;;;;4.97;69.68;102062.28;2081593;28;20189;-66
2021/12/31 04:30:30;;;;;;;7.07;5.13;;;;;;;5.60;70.08;102157.06;2080919;28;20189;-66
2021/12/31 04:31:31;;;;;;;7.60;5.10;;;;;;;4.71;70.15;102029.91;2082089;28;20184;-66
2021/12/31 04:32:32;;;;;;;6.33;5.00;;;;;;;5.55;70.04;102165.59;2082092;28;20250;-67
2021/12/31 04:33:32;;;;;;;6.20;5.17;;;;;;;5.56;70.34;102165.25;2082072;28;20175;-67
2021/12/31 04:34:33;;;;;;;6.67;5.40;;;;;;;5.56;70.52;102167.19;2082038;28;20622;-67
2021/12/31 04:35:34;;;;;;;8.00;5.60;;;;;;;5.60;70.45;102165.31;2082065;28;20178;-67
2021/12/31 04:36:34;;;;;;;7.63;5.63;;;;;;;5.54;70.25;102156.53;2082055;28;20360;-67
2021/12/31 04:37:35;;;;;;;6.80;5.40;;;;;;;5.59;70.55;102170.00;2082337;28;20185;-67
2021/12/31 04:38:35;;;;;;;6.77;5.10;;;;;;;5.60;70.30;102173.56;2082065;28;20613;-67
2021/12/31 04:39:35;;;;;;;7.07;5.13;;;;;;;5.57;70.83;102164.09;2081521;28;20195;-67
2021/12/31 04:40:36;;;;;;;6.77;4.80;;;;;;;5.54;71.01;102175.00;2080747;28;20224;-67
2021/12/31 04:41:36;;;;;;;7.53;5.20;;;;;;;5.55;71.02;102173.84;2082033;28;20176;-67
2021/12/31 04:42:41;;;;;;;7.43;5.53;;;;;;;5.57;70.59;102172.34;2081276;28;20651;-67
2021/12/31 04:43:42;;;;;;;7.60;5.78;;;;;;;5.57;70.43;102164.09;2081469;28;20286;-67
2021/12/31 04:44:42;;;;;;;6.87;5.70;;;;;;;5.60;70.48;102171.59;2081943;28;20664;-67
2021/12/31 04:45:43;;;;;;;6.43;5.43;;;;;;;5.49;70.55;102154.06;2089679;28;20510;-67
2021/12/31 04:46:43;;;;;;;7.83;5.20;;;;;;;5.48;70.51;102154.47;2089652;28;20194;-67
2021/12/31 04:47:44;;;;;;;6.60;4.90;;;;;;;4.92;70.99;102082.56;2081951;28;20183;-67
2021/12/31 04:48:45;;;;;;;7.13;5.17;;;;;;;5.56;71.32;102189.19;2081948;28;20737;-67
2021/12/31 04:49:45;;;;;;;5.90;4.80;;;;;;;5.51;71.11;102176.53;2080853;28;20308;-67